Map

Track Data

SID SEASON NUMBER BASIN SUBBASIN NAME ISO_TIME NATURE LAT LON WMO_WIND WMO_PRES WMO_AGENCY TRACK_TYPE DIST2LAND LANDFALL IFLAG USA_AGENCY USA_ATCF_ID USA_LAT USA_LON USA_RECORD USA_STATUS USA_WIND USA_PRES USA_SSHS USA_R34_NE USA_R34_SE USA_R34_SW USA_R34_NW USA_R50_NE USA_R50_SE USA_R50_SW USA_R50_NW USA_R64_NE USA_R64_SE USA_R64_SW USA_R64_NW USA_POCI USA_ROCI USA_RMW USA_EYE TOKYO_LAT TOKYO_LON TOKYO_GRADE TOKYO_WIND TOKYO_PRES TOKYO_R50_DIR TOKYO_R50_LONG TOKYO_R50_SHORT TOKYO_R30_DIR TOKYO_R30_LONG TOKYO_R30_SHORT TOKYO_LAND CMA_LAT CMA_LON CMA_CAT CMA_WIND CMA_PRES HKO_LAT HKO_LON HKO_CAT HKO_WIND HKO_PRES NEWDELHI_LAT NEWDELHI_LON NEWDELHI_GRADE NEWDELHI_WIND NEWDELHI_PRES NEWDELHI_CI NEWDELHI_DP NEWDELHI_POCI REUNION_LAT REUNION_LON REUNION_TYPE REUNION_WIND REUNION_PRES REUNION_TNUM REUNION_CI REUNION_RMW REUNION_R34_NE REUNION_R34_SE REUNION_R34_SW REUNION_R34_NW REUNION_R50_NE REUNION_R50_SE REUNION_R50_SW REUNION_R50_NW REUNION_R64_NE REUNION_R64_SE REUNION_R64_SW REUNION_R64_NW BOM_LAT BOM_LON BOM_TYPE BOM_WIND BOM_PRES BOM_TNUM BOM_CI BOM_RMW BOM_R34_NE BOM_R34_SE BOM_R34_SW BOM_R34_NW BOM_R50_NE BOM_R50_SE BOM_R50_SW BOM_R50_NW BOM_R64_NE BOM_R64_SE BOM_R64_SW BOM_R64_NW BOM_ROCI BOM_POCI BOM_EYE BOM_POS_METHOD BOM_PRES_METHOD NADI_LAT NADI_LON NADI_CAT NADI_WIND NADI_PRES WELLINGTON_LAT WELLINGTON_LON WELLINGTON_WIND WELLINGTON_PRES DS824_LAT DS824_LON DS824_STAGE DS824_WIND DS824_PRES TD9636_LAT TD9636_LON TD9636_STAGE TD9636_WIND TD9636_PRES TD9635_LAT TD9635_LON TD9635_WIND TD9635_PRES TD9635_ROCI NEUMANN_LAT NEUMANN_LON NEUMANN_CLASS NEUMANN_WIND NEUMANN_PRES MLC_LAT MLC_LON MLC_CLASS MLC_WIND MLC_PRES USA_GUST BOM_GUST BOM_GUST_PER REUNION_GUST REUNION_GUST_PER USA_SEAHGT USA_SEARAD_NE USA_SEARAD_SE USA_SEARAD_SW USA_SEARAD_NW STORM_SPEED STORM_DIR
1910282N11281 1910 48 NA CS NOT_NAMED 1910-10-09 06:00:00 TS 11.2000 -79.5000 30 hurdat_atl main 190 190 O_____________ hurdat_atl AL051910 11.2000 -79.5000 TD 30 -1 3 298
1910282N11281 1910 48 NA CS NOT_NAMED 1910-10-09 09:00:00 TS 11.2625 -79.6225 main 201 201 P_____________ AL051910 11.2625 -79.6225 TD 30 -1 2 297
1910282N11281 1910 48 NA CS NOT_NAMED 1910-10-09 12:00:00 TS 11.3000 -79.7000 30 hurdat_atl main 201 201 O_____________ hurdat_atl AL051910 11.3000 -79.7000 TD 30 -1 1 295
1910282N11281 1910 48 NA CS NOT_NAMED 1910-10-09 15:00:00 TS 11.3000 -79.7075 main 201 201 P_____________ AL051910 11.3000 -79.7075 TD 30 -1 0 0
1910282N11281 1910 48 NA CS NOT_NAMED 1910-10-09 18:00:00 TS 11.3000 -79.7000 30 hurdat_atl main 201 201 O_____________ hurdat_atl AL051910 11.3000 -79.7000 TD 30 -1 0 309
1910282N11281 1910 48 NA CS NOT_NAMED 1910-10-09 21:00:00 TS 11.3350 -79.7425 main 201 201 P_____________ AL051910 11.3350 -79.7425 TD 30 -1 1 317
1910282N11281 1910 48 NA CS NOT_NAMED 1910-10-10 00:00:00 TS 11.4000 -79.8000 30 hurdat_atl main 213 213 O_____________ hurdat_atl AL051910 11.4000 -79.8000 TD 30 -1 2 326
1910282N11281 1910 48 NA CS NOT_NAMED 1910-10-10 03:00:00 TS 11.4925 -79.8500 main 225 225 P_____________ AL051910 11.4925 -79.8500 TD 30 -1 2 333
1910282N11281 1910 48 NA CS NOT_NAMED 1910-10-10 06:00:00 TS 11.6000 -79.9000 30 hurdat_atl main 236 236 O_____________ hurdat_atl AL051910 11.6000 -79.9000 TD 30 -1 2 333
1910282N11281 1910 48 NA CS NOT_NAMED 1910-10-10 09:00:00 TS 11.6925 -79.9500 main 248 248 P_____________ AL051910 11.6925 -79.9500 TD 30 -1 2 333
1910282N11281 1910 48 NA CS NOT_NAMED 1910-10-10 12:00:00 TS 11.8000 -80.0000 30 hurdat_atl main 259 259 O_____________ hurdat_atl AL051910 11.8000 -80.0000 TD 30 -1 3 340
1910282N11281 1910 48 NA CS NOT_NAMED 1910-10-10 15:00:00 TS 11.9425 -80.0425 main 270 270 P_____________ AL051910 11.9425 -80.0425 TD 30 -1 3 343
1910282N11281 1910 48 NA CS NOT_NAMED 1910-10-10 18:00:00 TS 12.1000 -80.1000 30 hurdat_atl main 294 294 O_____________ hurdat_atl AL051910 12.1000 -80.1000 TD 30 -1 3 334
1910282N11281 1910 48 NA CS NOT_NAMED 1910-10-10 21:00:00 TS 12.2425 -80.1925 main 307 307 P_____________ AL051910 12.2425 -80.1925 TD 32 -1 4 327
1910282N11281 1910 48 NA CS NOT_NAMED 1910-10-11 00:00:00 TS 12.4000 -80.3000 35 hurdat_atl main 331 331 O_____________ hurdat_atl AL051910 12.4000 -80.3000 TS 35 0 4 330
1910282N11281 1910 48 NA CS NOT_NAMED 1910-10-11 03:00:00 TS 12.5925 -80.4000 main 336 325 P_____________ AL051910 12.5925 -80.4000 TS 35 0 4 334
1910282N11281 1910 48 NA CS NOT_NAMED 1910-10-11 06:00:00 TS 12.8000 -80.5000 35 hurdat_atl main 325 314 O_____________ hurdat_atl AL051910 12.8000 -80.5000 TS 35 0 4 334
1910282N11281 1910 48 NA CS NOT_NAMED 1910-10-11 09:00:00 TS 12.9850 -80.6000 main 314 296 P_____________ AL051910 12.9850 -80.6000 TS 37 0 4 334
1910282N11281 1910 48 NA CS NOT_NAMED 1910-10-11 12:00:00 TS 13.2000 -80.7000 40 hurdat_atl main 296 274 O_____________ hurdat_atl AL051910 13.2000 -80.7000 TS 40 0 5 338
1910282N11281 1910 48 NA CS NOT_NAMED 1910-10-11 15:00:00 TS 13.4700 -80.8000 main 274 254 P_____________ AL051910 13.4700 -80.8000 TS 42 0 6 342
1910282N11281 1910 48 NA CS NOT_NAMED 1910-10-11 18:00:00 TS 13.8000 -80.9000 45 hurdat_atl main 254 237 O_____________ hurdat_atl AL051910 13.8000 -80.9000 TS 45 0 8 345
1910282N11281 1910 48 NA CS NOT_NAMED 1910-10-11 21:00:00 TS 14.2000 -81.0000 main 237 219 P_____________ AL051910 14.2000 -81.0000 TS 47 0 8 346
1910282N11281 1910 48 NA CS NOT_NAMED 1910-10-12 00:00:00 TS 14.6000 -81.1000 50 hurdat_atl main 219 204 O_____________ hurdat_atl AL051910 14.6000 -81.1000 TS 50 0 7 345
1910282N11281 1910 48 NA CS NOT_NAMED 1910-10-12 03:00:00 TS 14.9000 -81.2001 main 204 193 P_____________ AL051910 14.9000 -81.2001 TS 52 0 6 342
1910282N11281 1910 48 NA CS NOT_NAMED 1910-10-12 06:00:00 TS 15.2000 -81.3000 55 hurdat_atl main 194 187 O_____________ hurdat_atl AL051910 15.2000 -81.3000 TS 55 0 7 345
1910282N11281 1910 48 NA CS NOT_NAMED 1910-10-12 09:00:00 TS 15.5775 -81.3926 main 194 193 P_____________ AL051910 15.5775 -81.3926 TS 60 0 8 346
1910282N11281 1910 48 NA CS NOT_NAMED 1910-10-12 12:00:00 TS 16.0000 -81.5000 65 hurdat_atl main 204 204 O_____________ hurdat_atl AL051910 16.0000 -81.5000 HU 65 1 9 345
1910282N11281 1910 48 NA CS NOT_NAMED 1910-10-12 15:00:00 TS 16.4500 -81.6425 main 232 225 P_____________ AL051910 16.4500 -81.6425 HU 70 1 10 342
1910282N11281 1910 48 NA CS NOT_NAMED 1910-10-12 18:00:00 TS 16.9000 -81.8000 75 hurdat_atl main 247 247 O_____________ hurdat_atl AL051910 16.9000 -81.8000 HU 75 1 9 340
1910282N11281 1910 48 NA CS NOT_NAMED 1910-10-12 21:00:00 TS 17.3000 -81.9576 main 269 269 P_____________ AL051910 17.3000 -81.9576 HU 80 1 9 340
1910282N11281 1910 48 NA CS NOT_NAMED 1910-10-13 00:00:00 TS 17.7000 -82.1000 85 hurdat_atl main 302 302 O_____________ hurdat_atl AL051910 17.7000 -82.1000 HU 85 2 9 344
1910282N11281 1910 48 NA CS NOT_NAMED 1910-10-13 03:00:00 TS 18.1425 -82.2076 main 338 317 P_____________ AL051910 18.1425 -82.2076 HU 87 2 9 348
1910282N11281 1910 48 NA CS NOT_NAMED 1910-10-13 06:00:00 TS 18.6000 -82.3000 90 hurdat_atl main 317 271 O_____________ hurdat_atl AL051910 18.6000 -82.3000 HU 90 2 9 349
1910282N11281 1910 48 NA CS NOT_NAMED 1910-10-13 09:00:00 TS 19.0500 -82.4001 main 260 214 P_____________ AL051910 19.0500 -82.4001 HU 92 2 9 348
1910282N11281 1910 48 NA CS NOT_NAMED 1910-10-13 12:00:00 TS 19.5000 -82.5000 95 hurdat_atl main 214 169 O_____________ hurdat_atl AL051910 19.5000 -82.5000 HU 95 2 9 348
1910282N11281 1910 48 NA CS NOT_NAMED 1910-10-13 15:00:00 TS 19.9425 -82.5926 main 169 112 P_____________ AL051910 19.9425 -82.5926 HU 95 2 9 348
1910282N11281 1910 48 NA CS NOT_NAMED 1910-10-13 18:00:00 TS 20.4000 -82.7000 95 hurdat_atl main 112 55 O_____________ hurdat_atl AL051910 20.4000 -82.7000 HU 95 2 10 347
1910282N11281 1910 48 NA CS NOT_NAMED 1910-10-13 21:00:00 TS 20.8999 -82.8202 main 55 11 P_____________ AL051910 20.8999 -82.8202 HU 97 3 10 344
1910282N11281 1910 48 NA CS NOT_NAMED 1910-10-14 00:00:00 TS 21.4000 -83.0000 100 hurdat_atl main 11 0 O_____________ hurdat_atl AL051910 21.4000 -83.0000 HU 100 3 11 336
1910282N11281 1910 48 NA CS NOT_NAMED 1910-10-14 03:00:00 TS 21.8726 -83.2923 main 23 0 P_____________ AL051910 21.8726 -83.2923 HU 100 3 11 328
1910282N11281 1910 48 NA NA NOT_NAMED 1910-10-14 06:00:00 TS 22.3000 -83.6000 100 960 hurdat_atl main 0 0 O_____________ hurdat_atl AL051910 22.3000 -83.6000 HU 100 960 3 10 329
1910282N11281 1910 48 NA NA NOT_NAMED 1910-10-14 09:00:00 TS 22.6949 -83.8301 main 0 0 P_____________ AL051910 22.6949 -83.8301 HU 95 2 8 332
1910282N11281 1910 48 NA GM NOT_NAMED 1910-10-14 12:00:00 TS 23.0000 -84.0000 90 hurdat_atl main 33 33 O_____________ hurdat_atl AL051910 23.0000 -84.0000 HU 90 2 6 332
1910282N11281 1910 48 NA GM NOT_NAMED 1910-10-14 15:00:00 TS 23.1800 -84.1152 main 56 56 P_____________ AL051910 23.1800 -84.1152 HU 87 2 4 329
1910282N11281 1910 48 NA GM NOT_NAMED 1910-10-14 18:00:00 TS 23.3000 -84.2000 85 hurdat_atl main 70 70 O_____________ hurdat_atl AL051910 23.3000 -84.2000 HU 85 2 3 330
1910282N11281 1910 48 NA GM NOT_NAMED 1910-10-14 21:00:00 TS 23.4650 -84.2925 main 94 94 P_____________ AL051910 23.4650 -84.2925 HU 87 2 4 329
1910282N11281 1910 48 NA GM NOT_NAMED 1910-10-15 00:00:00 TS 23.6000 -84.4000 90 hurdat_atl main 108 108 O_____________ hurdat_atl AL051910 23.6000 -84.4000 HU 90 2 3 312
1910282N11281 1910 48 NA GM NOT_NAMED 1910-10-15 03:00:00 TS 23.6725 -84.5425 main 122 122 P_____________ AL051910 23.6725 -84.5425 HU 90 2 3 290
1910282N11281 1910 48 NA GM NOT_NAMED 1910-10-15 06:00:00 TS 23.7000 -84.7000 90 hurdat_atl main 132 132 O_____________ hurdat_atl AL051910 23.7000 -84.7000 HU 90 2 3 278
1910282N11281 1910 48 NA GM NOT_NAMED 1910-10-15 09:00:00 TS 23.7150 -84.8575 main 144 144 P_____________ AL051910 23.7150 -84.8575 HU 90 2 3 270
1910282N11281 1910 48 NA GM NOT_NAMED 1910-10-15 12:00:00 TS 23.7000 -85.0000 90 hurdat_atl main 151 151 O_____________ hurdat_atl AL051910 23.7000 -85.0000 HU 90 2 2 258
1910282N11281 1910 48 NA GM NOT_NAMED 1910-10-15 15:00:00 TS 23.6650 -85.1150 main 158 150 P_____________ AL051910 23.6650 -85.1150 HU 90 2 2 241
1910282N11281 1910 48 NA GM NOT_NAMED 1910-10-15 18:00:00 TS 23.6000 -85.2000 90 hurdat_atl main 158 150 O_____________ hurdat_atl AL051910 23.6000 -85.2000 HU 90 2 2 220
1910282N11281 1910 48 NA GM NOT_NAMED 1910-10-15 21:00:00 TS 23.5075 -85.2575 main 158 150 P_____________ AL051910 23.5075 -85.2575 HU 95 2 2 205
1910282N11281 1910 48 NA GM NOT_NAMED 1910-10-16 00:00:00 TS 23.4000 -85.3000 100 hurdat_atl main 150 143 O_____________ hurdat_atl AL051910 23.4000 -85.3000 HU 100 3 2 205
1910282N11281 1910 48 NA GM NOT_NAMED 1910-10-16 03:00:00 TS 23.3075 -85.3500 main 143 143 P_____________ AL051910 23.3075 -85.3500 HU 105 3 2 205
1910282N11281 1910 48 NA GM NOT_NAMED 1910-10-16 06:00:00 TS 23.2000 -85.4000 110 hurdat_atl main 143 136 O_____________ hurdat_atl AL051910 23.2000 -85.4000 HU 110 3 3 204
1910282N11281 1910 48 NA GM NOT_NAMED 1910-10-16 09:00:00 TS 23.0725 -85.4651 main 143 123 P_____________ AL051910 23.0725 -85.4651 HU 115 4 3 196
1910282N11281 1910 48 NA GM NOT_NAMED 1910-10-16 12:00:00 TS 22.9000 -85.5000 120 hurdat_atl main 123 103 O_____________ hurdat_atl AL051910 22.9000 -85.5000 HU 120 4 4 0
1910282N11281 1910 48 NA GM NOT_NAMED 1910-10-16 15:00:00 TS 22.6499 -85.4950 main 93 69 P_____________ AL051910 22.6499 -85.4950 HU 125 4 5 170
1910282N11281 1910 48 NA GM NOT_NAMED 1910-10-16 18:00:00 TS 22.4000 -85.4000 130 hurdat_atl main 69 39 O_____________ hurdat_atl AL051910 22.4000 -85.4000 HU 130 4 5 148
1910282N11281 1910 48 NA GM NOT_NAMED 1910-10-16 21:00:00 TS 22.1825 -85.1872 main 39 22 P_____________ AL051910 22.1825 -85.1872 HU 130 4 6 123
1910282N11281 1910 48 NA GM NOT_NAMED 1910-10-17 00:00:00 TS 22.1000 -84.9000 130 924 hurdat_atl main 22 20 O_____________ hurdat_atl AL051910 22.1000 -84.9000 HU 130 924 4 5 87
1910282N11281 1910 48 NA GM NOT_NAMED 1910-10-17 03:00:00 TS 22.2099 -84.6224 main 20 10 P_____________ AL051910 22.2099 -84.6224 HU 127 4 7 54
1910282N11281 1910 48 NA GM NOT_NAMED 1910-10-17 06:00:00 TS 22.5000 -84.3000 125 hurdat_atl main 10 10 O_____________ hurdat_atl AL051910 22.5000 -84.3000 HU 125 4 10 44
1910282N11281 1910 48 NA GM NOT_NAMED 1910-10-17 09:00:00 TS 22.9051 -83.9077 main 22 22 P_____________ AL051910 22.9051 -83.9077 HU 122 4 12 39
1910282N11281 1910 48 NA GM NOT_NAMED 1910-10-17 12:00:00 TS 23.4000 -83.5000 120 hurdat_atl main 56 56 O_____________ hurdat_atl AL051910 23.4000 -83.5000 HU 120 4 12 36
1910282N11281 1910 48 NA GM NOT_NAMED 1910-10-17 15:00:00 TS 23.8849 -83.1347 main 105 105 P_____________ AL051910 23.8849 -83.1347 HU 117 4 12 33
1910282N11281 1910 48 NA NA NOT_NAMED 1910-10-17 18:00:00 TS 24.4000 -82.8000 115 941 hurdat_atl main 148 135 O_____________ hurdat_atl AL051910 24.4000 -82.8000 HU 115 941 4 12 30
1910282N11281 1910 48 NA GM NOT_NAMED 1910-10-17 21:00:00 TS 24.9500 -82.4626 main 128 67 P_____________ AL051910 24.9500 -82.4626 HU 110 944 3 12 26
1910282N11281 1910 48 NA GM NOT_NAMED 1910-10-18 00:00:00 TS 25.5000 -82.2000 105 hurdat_atl main 67 31 I_____________ hurdat_atl AL051910 25.5000 -82.2000 HU 105 948 3 11 19
1910282N11281 1910 48 NA GM NOT_NAMED 1910-10-18 03:00:00 TS 26.0074 -82.0621 main 31 0 P_____________ AL051910 26.0074 -82.0621 HU 100 951 3 10 10
1910282N11281 1910 48 NA GM NOT_NAMED 1910-10-18 06:00:00 TS 26.5000 -82.0000 95 955 hurdat_atl main 0 0 O_____________ hurdat_atl AL051910 26.5000 -82.0000 L HU 95 955 2 10 7
1910282N11281 1910 48 NA NA NOT_NAMED 1910-10-18 09:00:00 TS 27.0150 -81.9350 main 0 0 P_____________ AL051910 27.0150 -81.9350 HU 82 1 10 5
1910282N11281 1910 48 NA NA NOT_NAMED 1910-10-18 12:00:00 TS 27.5000 -81.9000 70 hurdat_atl main 0 0 O_____________ hurdat_atl AL051910 27.5000 -81.9000 HU 70 1 9 3
1910282N11281 1910 48 NA NA NOT_NAMED 1910-10-18 15:00:00 TS 27.9075 -81.8924 main 0 0 P_____________ AL051910 27.9075 -81.8924 HU 65 1 8 1
1910282N11281 1910 48 NA NA NOT_NAMED 1910-10-18 18:00:00 TS 28.3000 -81.9000 60 hurdat_atl main 0 0 O_____________ hurdat_atl AL051910 28.3000 -81.9000 TS 60 0 8 0
1910282N11281 1910 48 NA NA NOT_NAMED 1910-10-18 21:00:00 TS 28.7425 -81.9000 main 0 0 P_____________ AL051910 28.7425 -81.9000 TS 55 0 9 0
1910282N11281 1910 48 NA NA NOT_NAMED 1910-10-19 00:00:00 TS 29.2000 -81.9000 50 hurdat_atl main 0 0 O_____________ hurdat_atl AL051910 29.2000 -81.9000 TS 50 0 9 0
1910282N11281 1910 48 NA NA NOT_NAMED 1910-10-19 03:00:00 TS 29.6500 -81.9222 main 0 0 P_____________ AL051910 29.6500 -81.9222 TS 50 0 9 0
1910282N11281 1910 48 NA NA NOT_NAMED 1910-10-19 06:00:00 TS 30.1000 -81.9000 50 hurdat_atl main 0 0 O_____________ hurdat_atl AL051910 30.1000 -81.9000 TS 50 0 9 6
1910282N11281 1910 48 NA NA NOT_NAMED 1910-10-19 09:00:00 TS 30.5422 -81.8243 main 0 0 P_____________ AL051910 30.5422 -81.8243 TS 50 0 9 16
1910282N11281 1910 48 NA NA NOT_NAMED 1910-10-19 12:00:00 TS 31.0000 -81.6000 50 hurdat_atl main 0 0 O_____________ hurdat_atl AL051910 31.0000 -81.6000 TS 50 0 11 31
1910282N11281 1910 48 NA NA NOT_NAMED 1910-10-19 15:00:00 TS 31.5154 -81.1384 main 14 9 P_____________ AL051910 31.5154 -81.1384 TS 55 0 13 40
1910282N11281 1910 48 NA NA NOT_NAMED 1910-10-19 18:00:00 TS 32.0000 -80.6000 60 hurdat_atl main 21 21 O_____________ hurdat_atl AL051910 32.0000 -80.6000 TS 60 0 11 43
1910282N11281 1910 48 NA NA NOT_NAMED 1910-10-19 21:00:00 TS 32.3568 -80.2209 main 14 0 P_____________ AL051910 32.3568 -80.2209 TS 60 0 10 44
1910282N11281 1910 48 NA NA NOT_NAMED 1910-10-20 00:00:00 TS 32.7000 -79.8000 60 hurdat_atl main 9 0 O_____________ hurdat_atl AL051910 32.7000 -79.8000 TS 60 0 12 48
1910282N11281 1910 48 NA NA NOT_NAMED 1910-10-20 03:00:00 TS 33.1426 -79.1952 main 11 0 P_____________ AL051910 33.1426 -79.1952 TS 60 0 14 50
1910282N11281 1910 48 NA NA NOT_NAMED 1910-10-20 06:00:00 TS 33.6000 -78.5000 60 hurdat_atl main 33 0 O_____________ hurdat_atl AL051910 33.6000 -78.5000 TS 60 0 14 52
1910282N11281 1910 48 NA NA NOT_NAMED 1910-10-20 09:00:00 TS 33.9987 -77.8582 main 9 9 P_____________ AL051910 33.9987 -77.8582 TS 57 0 14 55
1910282N11281 1910 48 NA NA NOT_NAMED 1910-10-20 12:00:00 TS 34.4000 -77.1000 55 hurdat_atl main 28 0 O_____________ hurdat_atl AL051910 34.4000 -77.1000 TS 55 0 17 59
1910282N11281 1910 48 NA NA NOT_NAMED 1910-10-20 15:00:00 TS 34.8565 -76.1472 main 18 18 P_____________ AL051910 34.8565 -76.1472 TS 52 0 19 62
1910282N11281 1910 48 NA NA NOT_NAMED 1910-10-20 18:00:00 TS 35.3000 -75.0000 50 hurdat_atl main 71 71 O_____________ hurdat_atl AL051910 35.3000 -75.0000 TS 50 0 21 68
1910282N11281 1910 48 NA NA NOT_NAMED 1910-10-20 21:00:00 TS 35.6708 -73.7384 main 162 162 P_____________ AL051910 35.6708 -73.7384 TS 47 0 23 72
1910282N11281 1910 48 NA NA NOT_NAMED 1910-10-21 00:00:00 TS 36.0000 -72.3000 45 hurdat_atl main 288 288 O_____________ hurdat_atl AL051910 36.0000 -72.3000 TS 45 0 26 75
1910282N11281 1910 48 NA NA NOT_NAMED 1910-10-21 03:00:00 TS 36.3229 -70.6725 main 434 434 P_____________ AL051910 36.3229 -70.6725 TS 45 0 27 77
1910282N11281 1910 48 NA NA NOT_NAMED 1910-10-21 06:00:00 ET 36.6000 -69.0000 45 hurdat_atl main 561 561 O_____________ hurdat_atl AL051910 36.6000 -69.0000 EX 45 -4 27 79
1910282N11281 1910 48 NA NA NOT_NAMED 1910-10-21 09:00:00 ET 36.8454 -67.3729 main 589 582 P_____________ AL051910 36.8454 -67.3729 EX 45 -4 24 81
1910282N11281 1910 48 NA NA NOT_NAMED 1910-10-21 12:00:00 ET 37.0000 -66.0000 45 hurdat_atl main 625 625 O_____________ hurdat_atl AL051910 37.0000 -66.0000 EX 45 -4 19 84
1910282N11281 1910 48 NA NA NOT_NAMED 1910-10-21 15:00:00 ET 37.0422 -65.0640 main 670 670 P_____________ AL051910 37.0422 -65.0640 EX 42 -4 13 90
1910282N11281 1910 48 NA NA NOT_NAMED 1910-10-21 18:00:00 ET 37.0000 -64.4000 40 hurdat_atl main 709 709 O_____________ hurdat_atl AL051910 37.0000 -64.4000 EX 40 -4 10 96
1910282N11281 1910 48 NA NA NOT_NAMED 1910-10-21 21:00:00 ET 36.9289 -63.7853 main 745 745 P_____________ AL051910 36.9289 -63.7853 EX 40 -4 10 102
1910282N11281 1910 48 NA NA NOT_NAMED 1910-10-22 00:00:00 ET 36.8000 -63.2000 40 hurdat_atl main 766 766 O_____________ hurdat_atl AL051910 36.8000 -63.2000 EX 40 -4 11 107
1910282N11281 1910 48 NA NA NOT_NAMED 1910-10-22 03:00:00 ET 36.6155 -62.4695 main 803 803 P_____________ AL051910 36.6155 -62.4695 EX 40 -4 12 110
1910282N11281 1910 48 NA NA NOT_NAMED 1910-10-22 06:00:00 ET 36.4000 -61.8000 40 hurdat_atl main 844 844 O_____________ hurdat_atl AL051910 36.4000 -61.8000 EX 40 -4 10 116
1910282N11281 1910 48 NA NA NOT_NAMED 1910-10-22 09:00:00 ET 36.1842 -61.3629 main 877 877 P_____________ AL051910 36.1842 -61.3629 EX 40 -4 8 122
1910282N11281 1910 48 NA NA NOT_NAMED 1910-10-22 12:00:00 ET 36.0000 -61.0000 40 hurdat_atl main 911 911 O_____________ hurdat_atl AL051910 36.0000 -61.0000 EX 40 -4 7 116
1910282N11281 1910 48 NA NA NOT_NAMED 1910-10-22 15:00:00 ET 35.8771 -60.5802 main 935 935 P_____________ AL051910 35.8771 -60.5802 EX 40 -4 8 105
1910282N11281 1910 48 NA NA NOT_NAMED 1910-10-22 18:00:00 ET 35.8000 -60.1000 40 hurdat_atl main 964 964 O_____________ hurdat_atl AL051910 35.8000 -60.1000 EX 40 -4 9 99
1910282N11281 1910 48 NA NA NOT_NAMED 1910-10-22 21:00:00 ET 35.7355 -59.4850 main 998 998 P_____________ AL051910 35.7355 -59.4850 EX 37 -4 10 96
1910282N11281 1910 48 NA NA NOT_NAMED 1910-10-23 00:00:00 ET 35.7000 -58.9000 35 hurdat_atl main 1025 1025 O_____________ hurdat_atl AL051910 35.7000 -58.9000 EX 35 -4 8 93
1910282N11281 1910 48 NA NA NOT_NAMED 1910-10-23 03:00:00 ET 35.6919 -58.5277 main 1043 1043 P_____________ AL051910 35.6919 -58.5277 EX 35 -4 6 90
1910282N11281 1910 48 NA NA NOT_NAMED 1910-10-23 06:00:00 ET 35.7000 -58.2000 35 hurdat_atl main 1058 1058 O_____________ hurdat_atl AL051910 35.7000 -58.2000 EX 35 -4 6 89
1910282N11281 1910 48 NA NA NOT_NAMED 1910-10-23 09:00:00 ET 35.7000 -57.7650 main 1077 1077 P_____________ AL051910 35.7000 -57.7650 EX 35 -4 7 90
1910282N11281 1910 48 NA NA NOT_NAMED 1910-10-23 12:00:00 ET 35.7000 -57.3000 35 hurdat_atl main 1103 1103 O_____________ hurdat_atl AL051910 35.7000 -57.3000 EX 35 -4 7 90
1910282N11281 1910 48 NA NA NOT_NAMED 1910-10-23 15:00:00 ET 35.7002 -56.8450 main 1117 1117 P_____________ AL051910 35.7002 -56.8450 EX 35 -4 7 90
1910282N11281 1910 48 NA NA NOT_NAMED 1910-10-23 18:00:00 ET 35.7000 -56.4000 35 hurdat_atl main 1128 O_____________ hurdat_atl AL051910 35.7000 -56.4000 EX 35 -4 7 90

About IBTrACS Database

This database is a web-friendly format of International Best Track Archive for Climate Stewardship (IBTrACS), a global best track data archive curated by NOAA dating back to 1842.

Updated: 2021-10-21